Time;durP1;ratioP1;P1;durP2;ratioP2;P2;SDS_P1;SDS_P2;PMS_P1;PMS_P2;Temp;Humidity;BMP_temperature;BMP_pressure;BME280_temperature;BME280_humidity;BME280_pressure;Samples;Min_cycle;Max_cycle;Signal;HPM_P1;HPM_P2
2022/06/20 00:00:53;;;;;;;4.40;3.25;;;30.80;1.00;;;;;;5149810;27;20514;-49
2022/06/20 00:03:37;;;;;;;5.18;3.60;;;30.70;1.00;;;;;;5137152;27;20019;-52
2022/06/20 00:06:03;;;;;;;4.28;3.58;;;30.80;1.00;;;;;;5144366;27;20023;-49
2022/06/20 00:08:28;;;;;;;4.22;3.13;;;30.80;1.00;;;;;;5147913;27;20034;-49
2022/06/20 00:10:54;;;;;;;4.43;3.45;;;30.80;1.00;;;;;;5147625;27;20051;-48
2022/06/20 00:13:24;;;;;;;3.88;3.58;;;30.80;1.00;;;;;;5147602;27;20399;-51
2022/06/20 00:15:51;;;;;;;3.58;3.28;;;30.90;1.00;;;;;;5144781;27;20039;-49
2022/06/20 00:18:18;;;;;;;4.22;3.83;;;30.90;1.00;;;;;;5143483;27;20019;-53
2022/06/20 00:20:44;;;;;;;7.35;3.92;;;30.80;1.00;;;;;;5152947;27;20039;-53
2022/06/20 00:23:09;;;;;;;4.75;3.35;;;30.90;1.00;;;;;;5151500;27;20026;-51
2022/06/20 00:25:36;;;;;;;7.18;4.10;;;30.70;1.00;;;;;;5153540;27;20446;-48
2022/06/20 00:28:03;;;;;;;4.93;3.95;;;30.60;1.00;;;;;;5154471;27;20042;-50
2022/06/20 00:30:28;;;;;;;8.75;5.18;;;30.70;1.00;;;;;;5139835;27;20076;-47
2022/06/20 00:32:54;;;;;;;5.15;4.68;;;30.60;1.00;;;;;;5154258;27;20018;-47
2022/06/20 00:35:20;;;;;;;5.55;4.32;;;30.70;1.00;;;;;;5150827;27;20075;-51
2022/06/20 00:37:46;;;;;;;8.18;5.60;;;30.80;1.00;;;;;;5143383;27;20035;-49
2022/06/20 00:40:25;;;;;;;6.93;4.95;;;30.70;1.00;;;;;;5152953;27;20030;-48
2022/06/20 00:42:51;;;;;;;7.18;5.07;;;30.70;1.00;;;;;;5154360;27;20046;-52
2022/06/20 00:45:20;;;;;;;11.10;5.75;;;30.80;1.00;;;;;;5150042;27;20023;-52
2022/06/20 00:47:48;;;;;;;7.60;5.22;;;30.70;1.00;;;;;;5150799;27;20043;-52
2022/06/20 00:50:28;;;;;;;6.70;5.30;;;30.70;1.00;;;;;;5152843;27;20031;-52
2022/06/20 00:53:02;;;;;;;5.65;5.13;;;30.60;1.00;;;;;;5151900;27;20743;-50
2022/06/20 00:55:41;;;;;;;5.35;4.95;;;30.60;1.00;;;;;;5153266;27;20019;-52
2022/06/20 00:58:23;;;;;;;7.80;5.45;;;30.60;1.00;;;;;;5153668;27;20022;-53
2022/06/20 01:00:48;;;;;;;9.20;5.13;;;30.50;1.00;;;;;;5139357;27;20059;-51
2022/06/20 01:03:19;;;;;;;6.68;5.35;;;30.50;1.00;;;;;;5151709;27;20118;-49
2022/06/20 01:05:50;;;;;;;6.95;4.88;;;30.40;1.00;;;;;;5137064;27;20487;-53
2022/06/20 01:08:31;;;;;;;5.78;5.18;;;30.40;1.00;;;;;;5153737;27;20094;-50
2022/06/20 01:11:03;;;;;;;7.60;5.10;;;30.30;1.00;;;;;;5148930;27;20137;-49
2022/06/20 01:13:30;;;;;;;7.10;4.47;;;30.40;1.00;;;;;;5153399;27;20015;-52
2022/06/20 01:16:04;;;;;;;5.18;4.78;;;30.40;1.00;;;;;;5152446;27;20065;-52
2022/06/20 01:18:33;;;;;;;5.25;4.75;;;30.40;1.00;;;;;;5143963;27;20061;-50
2022/06/20 01:21:01;;;;;;;5.10;4.60;;;30.30;1.00;;;;;;5148707;27;20034;-50
2022/06/20 01:23:44;;;;;;;8.65;5.20;;;30.40;1.00;;;;;;5151512;27;20468;-50
2022/06/20 01:26:38;;;;;;;6.95;4.93;;;30.40;1.00;;;;;;5147574;27;20387;-49
2022/06/20 01:29:08;;;;;;;5.20;4.80;;;30.30;1.00;;;;;;5147453;27;20023;-50
2022/06/20 01:31:48;;;;;;;4.72;4.32;;;30.40;1.00;;;;;;5152541;27;20026;-48
2022/06/20 01:34:16;;;;;;;7.75;4.47;;;30.40;1.00;;;;;;5142059;27;21587;-49
2022/06/20 01:39:29;;;;;;;7.18;4.63;;;30.50;1.00;;;;;;5150423;27;20080;-49
2022/06/20 01:44:45;;;;;;;7.07;4.25;;;30.30;1.00;;;;;;5143783;27;20536;-50
2022/06/20 01:47:11;;;;;;;5.07;3.97;;;30.40;1.00;;;;;;5144249;27;20019;-48
2022/06/20 01:49:39;;;;;;;4.30;4.00;;;30.20;1.00;;;;;;5144319;27;20365;-47
2022/06/20 01:52:22;;;;;;;5.15;4.18;;;30.40;1.00;;;;;;5151852;27;20029;-51
2022/06/20 01:55:18;;;;;;;6.80;3.80;;;30.30;1.00;;;;;;5148152;27;20030;-49
2022/06/20 01:57:47;;;;;;;4.43;4.03;;;30.40;1.00;;;;;;5140893;27;20061;-48
2022/06/20 02:00:15;;;;;;;5.88;4.20;;;30.20;1.00;;;;;;5149924;27;20114;-48
2022/06/20 02:02:48;;;;;;;7.18;4.00;;;30.10;1.00;;;;;;5151576;27;20031;-48
2022/06/20 02:05:18;;;;;;;5.23;3.73;;;30.20;1.00;;;;;;5150536;27;20532;-54
2022/06/20 02:07:44;;;;;;;5.05;4.00;;;30.20;1.00;;;;;;5153833;27;20385;-54
2022/06/20 02:10:13;;;;;;;4.47;4.10;;;30.20;1.00;;;;;;5151890;27;20068;-53
2022/06/20 02:12:39;;;;;;;6.43;3.78;;;30.20;1.00;;;;;;5137441;27;20025;-54
2022/06/20 02:15:06;;;;;;;5.72;4.32;;;30.00;1.00;;;;;;5151477;27;20391;-52
2022/06/20 02:17:41;;;;;;;5.90;4.00;;;30.40;1.00;;;;;;5152865;27;20101;-51
2022/06/20 02:20:12;;;;;;;5.55;3.33;;;30.30;1.00;;;;;;5152095;27;20547;-53
2022/06/20 02:22:38;;;;;;;4.68;3.75;;;30.10;1.00;;;;;;5153079;27;20026;-50
2022/06/20 02:25:11;;;;;;;4.35;3.75;;;30.10;1.00;;;;;;5155071;27;20027;-53
2022/06/20 02:27:59;;;;;;;4.55;3.47;;;30.00;1.00;;;;;;5156964;27;20075;-49
2022/06/20 02:30:24;;;;;;;5.03;4.05;;;30.20;1.00;;;;;;5153003;27;20031;-53
2022/06/20 02:32:55;;;;;;;4.72;4.20;;;30.10;1.00;;;;;;5156130;27;20043;-52
2022/06/20 02:35:21;;;;;;;4.22;3.83;;;30.10;1.00;;;;;;5155586;27;20030;-52
2022/06/20 02:37:48;;;;;;;5.50;4.32;;;30.10;1.00;;;;;;5156466;27;20026;-52
2022/06/20 02:40:17;;;;;;;4.50;3.78;;;30.20;1.00;;;;;;5155430;27;20083;-48
2022/06/20 02:42:54;;;;;;;4.30;3.40;;;30.20;1.00;;;;;;5152722;27;20054;-54
2022/06/20 02:45:22;;;;;;;6.18;4.13;;;30.20;1.00;;;;;;5155887;27;20027;-48
2022/06/20 02:47:51;;;;;;;5.25;3.70;;;30.20;1.00;;;;;;5156233;27;20019;-47
2022/06/20 02:50:21;;;;;;;5.22;4.20;;;30.10;1.00;;;;;;5150343;27;20038;-48
2022/06/20 02:52:53;;;;;;;4.15;3.75;;;29.90;1.00;;;;;;5149407;27;20479;-48
2022/06/20 02:55:20;;;;;;;7.25;3.70;;;29.80;1.00;;;;;;5154350;27;20022;-49
2022/06/20 02:57:51;;;;;;;9.05;3.63;;;29.70;1.00;;;;;;5155201;27;20029;-48
2022/06/20 03:00:28;;;;;;;6.35;4.25;;;29.70;1.00;;;;;;5147476;27;20043;-49
2022/06/20 03:02:59;;;;;;;4.38;3.97;;;29.80;1.00;;;;;;5156048;27;20113;-47
2022/06/20 03:05:25;;;;;;;4.50;3.75;;;29.50;1.00;;;;;;5154679;27;20030;-48
2022/06/20 03:07:51;;;;;;;4.40;3.47;;;29.60;1.00;;;;;;5156024;27;20475;-49
2022/06/20 03:10:49;;;;;;;4.45;4.05;;;29.70;1.00;;;;;;5154212;27;20437;-49
2022/06/20 03:13:16;;;;;;;4.93;3.78;;;29.60;1.00;;;;;;5131054;27;20099;-49
2022/06/20 03:15:43;;;;;;;5.05;3.60;;;29.50;1.00;;;;;;5144975;27;20030;-49
2022/06/20 03:18:14;;;;;;;4.53;3.70;;;29.30;1.00;;;;;;5155982;27;20023;-50
2022/06/20 03:20:40;;;;;;;4.97;3.97;;;29.50;1.00;;;;;;5154296;27;20034;-50
2022/06/20 03:23:24;;;;;;;7.57;3.80;;;29.60;1.00;;;;;;5145777;27;20031;-48
2022/06/20 03:25:51;;;;;;;4.10;3.63;;;29.40;1.00;;;;;;5154120;27;20030;-47
2022/06/20 03:28:20;;;;;;;4.47;3.97;;;29.60;1.00;;;;;;5153773;27;20031;-50
2022/06/20 03:30:47;;;;;;;4.80;3.55;;;29.50;1.00;;;;;;5145923;27;20023;-48
2022/06/20 03:33:16;;;;;;;5.03;3.80;;;29.60;1.00;;;;;;5145249;27;20055;-49
2022/06/20 03:35:51;;;;;;;4.75;3.92;;;29.60;1.00;;;;;;5153513;27;20027;-49
2022/06/20 03:38:17;;;;;;;4.07;3.78;;;29.50;1.00;;;;;;5139923;27;20026;-48
2022/06/20 03:40:43;;;;;;;4.93;3.90;;;29.50;1.00;;;;;;5146502;27;20075;-48
2022/06/20 03:43:13;;;;;;;3.90;3.55;;;29.30;1.00;;;;;;5144877;27;20022;-51
2022/06/20 03:45:43;;;;;;;4.63;3.58;;;29.30;1.00;;;;;;5144827;27;20039;-47
2022/06/20 03:48:16;;;;;;;4.57;3.50;;;29.60;1.00;;;;;;5146380;27;20384;-49
2022/06/20 03:51:00;;;;;;;3.90;3.28;;;29.30;1.00;;;;;;5148133;27;20396;-49
2022/06/20 03:53:56;;;;;;;4.47;3.33;;;29.10;1.00;;;;;;5154831;27;20046;-54
2022/06/20 03:56:48;;;;;;;4.10;3.58;;;29.10;1.00;;;;;;5089963;28;20036;-49
2022/06/20 03:59:24;;;;;;;5.13;3.70;;;29.20;1.00;;;;;;5146014;27;20472;-48
2022/06/20 04:01:49;;;;;;;4.50;3.90;;;29.30;1.00;;;;;;5150926;27;20372;-50
2022/06/20 04:04:27;;;;;;;4.15;3.85;;;29.30;1.00;;;;;;5154609;27;20027;-48
2022/06/20 04:07:07;;;;;;;5.03;3.85;;;29.20;1.00;;;;;;5153639;27;20025;-50
2022/06/20 04:12:46;;;;;;;3.53;3.22;;;29.30;1.00;;;;;;5144719;27;20095;-52
2022/06/20 04:15:15;;;;;;;4.38;3.03;;;29.10;1.00;;;;;;5152999;27;20529;-53
2022/06/20 04:20:48;;;;;;;6.13;3.40;;;29.00;1.00;;;;;;5137567;27;20053;-48
2022/06/20 04:23:55;;;;;;;4.63;3.40;;;29.10;1.00;;;;;;5134415;27;20547;-51
2022/06/20 04:26:47;;;;;;;5.20;3.92;;;29.20;1.00;;;;;;5140815;27;20127;-51
2022/06/20 04:29:22;;;;;;;7.55;4.32;;;29.10;1.00;;;;;;5117578;27;20027;-51
2022/06/20 04:31:59;;;;;;;5.28;4.13;;;29.10;1.00;;;;;;5151664;27;20046;-53
2022/06/20 04:34:30;;;;;;;5.90;3.95;;;29.20;1.00;;;;;;5148818;27;20030;-52
2022/06/20 04:37:00;;;;;;;5.80;4.10;;;28.90;1.00;;;;;;5143061;27;20114;-52
2022/06/20 04:39:43;;;;;;;4.30;3.17;;;29.00;1.00;;;;;;5143023;27;20026;-54
2022/06/20 04:42:18;;;;;;;6.45;3.70;;;29.10;1.00;;;;;;5151508;27;20425;-53
2022/06/20 04:45:11;;;;;;;8.50;4.47;;;29.00;1.00;;;;;;5144119;27;20497;-53
2022/06/20 04:47:52;;;;;;;5.40;3.70;;;29.00;1.00;;;;;;5150768;27;20026;-50
2022/06/20 04:50:25;;;;;;;6.78;3.10;;;28.80;1.00;;;;;;5153889;27;20064;-53
2022/06/20 04:52:54;;;;;;;4.20;3.83;;;28.80;1.00;;;;;;5148042;27;20023;-53
2022/06/20 04:55:24;;;;;;;4.07;3.42;;;28.80;1.00;;;;;;5153356;27;20490;-51
2022/06/20 04:57:56;;;;;;;4.60;3.58;;;28.80;1.00;;;;;;5143561;27;20027;-50
2022/06/20 05:00:28;;;;;;;4.60;3.20;;;28.80;1.00;;;;;;5153671;27;20052;-51
2022/06/20 05:02:55;;;;;;;5.32;3.20;;;28.90;1.00;;;;;;5137812;27;20019;-48
2022/06/20 05:05:26;;;;;;;7.45;3.65;;;29.00;1.00;;;;;;5153319;27;20534;-54
2022/06/20 05:07:52;;;;;;;8.05;4.32;;;28.90;1.00;;;;;;5151467;27;20022;-49
2022/06/20 05:10:25;;;;;;;6.53;3.90;;;28.90;1.00;;;;;;5143438;27;20058;-49
2022/06/20 05:12:59;;;;;;;4.13;3.72;;;28.80;1.00;;;;;;5152487;27;20026;-50
2022/06/20 05:15:39;;;;;;;4.88;3.42;;;28.80;1.00;;;;;;5153888;27;20018;-49
2022/06/20 05:18:16;;;;;;;5.25;3.80;;;29.00;1.00;;;;;;5151849;27;20040;-49
2022/06/20 05:20:44;;;;;;;7.50;3.60;;;28.80;1.00;;;;;;5151481;27;20038;-49
2022/06/20 05:23:15;;;;;;;4.43;3.35;;;28.80;1.00;;;;;;5151066;27;20038;-50
2022/06/20 05:25:41;;;;;;;7.68;3.25;;;28.80;1.00;;;;;;5153731;27;20019;-54
2022/06/20 05:28:23;;;;;;;4.28;3.40;;;28.90;1.00;;;;;;5152592;27;20066;-55
2022/06/20 05:30:49;;;;;;;5.93;3.33;;;29.00;1.00;;;;;;5153746;27;20026;-55
2022/06/20 05:33:47;;;;;;;6.32;3.75;;;29.00;1.00;;;;;;5152077;27;20046;-54
2022/06/20 05:36:25;;;;;;;3.47;2.70;;;28.90;1.00;;;;;;5152031;27;20031;-53
2022/06/20 05:38:57;;;;;;;5.53;3.28;;;28.90;1.00;;;;;;5151494;27;20109;-51
2022/06/20 05:41:23;;;;;;;4.70;3.70;;;28.80;1.00;;;;;;5145214;27;20065;-53
2022/06/20 05:43:49;;;;;;;3.80;3.33;;;29.00;1.00;;;;;;5151728;27;20023;-51
2022/06/20 05:56:43;;;;;;;5.00;4.55;;;29.10;1.00;;;;;;5133207;27;20119;-51
2022/06/20 05:59:27;;;;;;;8.20;4.40;;;28.80;1.00;;;;;;5149055;27;20441;-48
2022/06/20 06:01:57;;;;;;;4.57;4.18;;;29.00;1.00;;;;;;5144014;27;20126;-49
2022/06/20 06:04:27;;;;;;;4.32;3.70;;;29.10;1.00;;;;;;5156961;27;20047;-49
2022/06/20 06:07:02;;;;;;;4.85;3.67;;;29.10;1.00;;;;;;5144992;27;20076;-48
2022/06/20 06:09:40;;;;;;;6.90;3.75;;;29.00;1.00;;;;;;5152023;27;20126;-50
2022/06/20 06:12:13;;;;;;;6.28;4.38;;;29.00;1.00;;;;;;5150546;27;20034;-49
2022/06/20 06:15:10;;;;;;;5.32;4.15;;;29.10;1.00;;;;;;5150772;27;20079;-48
2022/06/20 06:17:47;;;;;;;5.88;4.53;;;29.00;1.00;;;;;;5136923;27;20048;-54
2022/06/20 06:33:47;;;;;;;7.45;4.72;;;29.40;1.00;;;;;;5150333;27;20399;-52
2022/06/20 06:36:25;;;;;;;7.57;5.47;;;29.20;1.00;;;;;;5156785;27;20019;-51
2022/06/20 06:39:09;;;;;;;9.02;4.63;;;29.30;1.00;;;;;;5156717;27;20477;-49
2022/06/20 06:41:41;;;;;;;6.50;4.13;;;29.20;1.00;;;;;;5135909;27;20066;-50
2022/06/20 06:44:22;;;;;;;6.88;4.15;;;29.30;1.00;;;;;;5155603;27;20063;-52
2022/06/20 06:46:53;;;;;;;9.85;4.05;;;29.50;1.00;;;;;;5155118;27;20031;-54
2022/06/20 06:49:43;;;;;;;4.20;3.78;;;29.50;1.00;;;;;;5144585;27;20019;-49
2022/06/20 06:52:17;;;;;;;7.00;4.30;;;29.60;1.00;;;;;;5153270;27;20106;-49
2022/06/20 06:54:43;;;;;;;6.15;4.10;;;29.50;1.00;;;;;;5156491;27;20387;-49
2022/06/20 06:57:19;;;;;;;5.95;4.18;;;29.60;1.00;;;;;;5150788;27;20035;-51
2022/06/20 06:59:54;;;;;;;6.68;4.20;;;29.60;1.00;;;;;;5149184;27;20019;-54
2022/06/20 07:02:21;;;;;;;9.30;4.43;;;29.80;1.00;;;;;;5143431;27;20031;-48
2022/06/20 07:04:55;;;;;;;8.75;3.97;;;29.70;1.00;;;;;;5155156;27;20101;-49
2022/06/20 07:07:42;;;;;;;6.75;3.95;;;29.70;1.00;;;;;;5146360;27;20539;-50
2022/06/20 07:10:21;;;;;;;4.93;4.43;;;29.80;1.00;;;;;;5141532;27;20047;-51
2022/06/20 07:12:51;;;;;;;4.20;3.80;;;29.80;1.00;;;;;;5153914;27;20071;-52
2022/06/20 07:15:22;;;;;;;6.57;3.72;;;29.90;1.00;;;;;;5155827;27;20018;-53
2022/06/20 07:17:53;;;;;;;5.47;4.38;;;29.90;1.00;;;;;;5149413;27;20047;-55
2022/06/20 07:20:21;;;;;;;6.07;4.15;;;29.70;1.00;;;;;;5147648;27;20030;-52
2022/06/20 07:22:48;;;;;;;5.70;4.43;;;29.90;1.00;;;;;;5142001;27;20022;-54
2022/06/20 07:25:26;;;;;;;4.70;4.07;;;30.00;1.00;;;;;;5145508;27;20454;-53
2022/06/20 07:27:59;;;;;;;4.80;4.07;;;30.10;1.00;;;;;;5145842;27;20042;-54
2022/06/20 07:30:30;;;;;;;8.95;4.75;;;30.30;1.00;;;;;;5153758;27;20015;-53
2022/06/20 07:33:05;;;;;;;7.47;4.55;;;30.10;1.00;;;;;;5140589;27;20027;-53
2022/06/20 07:35:36;;;;;;;5.30;4.78;;;30.30;1.00;;;;;;5155526;27;20105;-53
2022/06/20 07:38:11;;;;;;;6.55;3.85;;;30.20;1.00;;;;;;5147614;27;20038;-49
2022/06/20 07:40:43;;;;;;;7.53;4.47;;;30.30;1.00;;;;;;5142248;27;20062;-54
2022/06/20 07:43:14;;;;;;;8.82;4.07;;;30.20;1.00;;;;;;5152983;27;20029;-53
2022/06/20 07:45:43;;;;;;;7.75;3.95;;;30.50;1.00;;;;;;5140754;27;20150;-54
2022/06/20 07:48:31;;;;;;;6.65;4.20;;;30.20;1.00;;;;;;5149854;27;20023;-53
2022/06/20 07:51:17;;;;;;;7.60;4.70;;;30.20;1.00;;;;;;5137033;27;20095;-53
2022/06/20 07:53:49;;;;;;;4.38;3.72;;;30.10;1.00;;;;;;5136466;27;20038;-54
2022/06/20 07:56:37;;;;;;;8.60;4.30;;;30.20;1.00;;;;;;5153725;27;20019;-51
2022/06/20 07:59:23;;;;;;;5.43;4.45;;;30.10;1.00;;;;;;5152712;27;20068;-55
2022/06/20 08:01:58;;;;;;;6.15;4.05;;;30.30;1.00;;;;;;5154636;27;20030;-55
2022/06/20 08:04:31;;;;;;;5.43;4.25;;;30.40;1.00;;;;;;5140225;27;20026;-53
2022/06/20 08:07:08;;;;;;;5.40;4.13;;;30.10;1.00;;;;;;5154825;27;20031;-52
2022/06/20 08:09:38;;;;;;;3.95;3.65;;;30.40;1.00;;;;;;5149700;27;20094;-54
2022/06/20 08:12:09;;;;;;;6.93;4.38;;;30.20;1.00;;;;;;5150908;27;20098;-54
2022/06/20 08:14:43;;;;;;;8.45;4.35;;;30.30;1.00;;;;;;5153493;27;20136;-55
2022/06/20 08:17:10;;;;;;;;;;;30.30;1.00;;;;;;5148710;27;20029;-53
2022/06/20 08:19:39;;;;;;;5.00;3.90;;;30.40;1.00;;;;;;5163764;27;19907;-48
2022/06/20 08:22:12;;;;;;;6.53;4.80;;;30.30;1.00;;;;;;5138496;27;20055;-47
2022/06/20 08:24:58;;;;;;;4.20;3.78;;;30.40;1.00;;;;;;5152907;27;20018;-46
2022/06/20 08:27:42;;;;;;;6.65;4.35;;;30.30;1.00;;;;;;5151412;27;20421;-51
2022/06/20 08:30:35;;;;;;;8.75;4.45;;;30.50;1.00;;;;;;5146245;27;20049;-48
2022/06/20 08:33:22;;;;;;;7.18;4.10;;;30.40;1.00;;;;;;5129413;27;20413;-49
2022/06/20 08:35:51;;;;;;;6.70;4.00;;;30.60;1.00;;;;;;5147711;27;20382;-50
2022/06/20 08:38:35;;;;;;;14.20;5.20;;;30.40;1.00;;;;;;5153035;27;20025;-47
2022/06/20 08:41:11;;;;;;;9.10;4.53;;;30.50;1.00;;;;;;5153761;27;20035;-48
2022/06/20 08:44:02;;;;;;;9.05;4.22;;;30.50;1.00;;;;;;5151969;27;20417;-51
2022/06/20 08:46:53;;;;;;;4.60;3.45;;;30.70;1.00;;;;;;5147502;27;20018;-49
2022/06/20 08:49:37;;;;;;;6.15;3.53;;;30.50;1.00;;;;;;5140699;27;20035;-52
2022/06/20 08:52:26;;;;;;;5.68;3.22;;;30.50;1.00;;;;;;5147293;27;20033;-48
2022/06/20 08:55:11;;;;;;;7.50;3.65;;;30.90;1.00;;;;;;5149017;27;20027;-49
2022/06/20 08:57:54;;;;;;;5.72;3.85;;;31.10;1.00;;;;;;5134529;27;20375;-49
2022/06/20 09:00:35;;;;;;;5.03;3.67;;;31.40;1.00;;;;;;5138987;27;20118;-51
2022/06/20 09:03:15;;;;;;;6.30;4.20;;;32.00;1.00;;;;;;5146409;27;20023;-51
2022/06/20 09:05:53;;;;;;;5.07;3.30;;;31.70;1.00;;;;;;5140442;27;20062;-53
2022/06/20 09:08:43;;;;;;;6.63;4.32;;;32.00;1.00;;;;;;5151515;27;20034;-50
2022/06/20 09:11:20;;;;;;;4.35;3.95;;;32.00;1.00;;;;;;5137663;27;20047;-50
2022/06/20 09:13:46;;;;;;;7.95;4.10;;;32.10;1.00;;;;;;5148425;27;20087;-53
2022/06/20 09:16:49;;;;;;;4.00;3.72;;;32.10;1.00;;;;;;5135539;27;20135;-50
2022/06/20 09:19:51;;;;;;;4.90;3.63;;;32.20;1.00;;;;;;5153098;27;20035;-49
2022/06/20 09:22:47;;;;;;;6.20;4.40;;;32.50;1.00;;;;;;5141850;27;20101;-50
2022/06/20 09:25:35;;;;;;;5.00;3.97;;;32.50;1.00;;;;;;5152740;27;20019;-53
2022/06/20 09:28:10;;;;;;;6.50;4.47;;;32.30;1.00;;;;;;5153086;27;20034;-47
2022/06/20 09:31:00;;;;;;;4.90;4.18;;;32.30;1.00;;;;;;5139380;27;20029;-48
2022/06/20 09:33:44;;;;;;;7.10;4.00;;;32.10;1.00;;;;;;5151330;27;20125;-48
2022/06/20 09:36:21;;;;;;;5.00;4.45;;;32.10;1.00;;;;;;5148819;27;20094;-48
2022/06/20 09:39:13;;;;;;;7.30;4.53;;;32.30;1.00;;;;;;5148105;27;20031;-47
2022/06/20 09:41:57;;;;;;;5.60;4.70;;;32.30;1.00;;;;;;5148686;27;20034;-47
2022/06/20 09:44:46;;;;;;;5.68;4.32;;;32.60;1.00;;;;;;5155772;27;20370;-49
2022/06/20 09:47:23;;;;;;;4.55;4.15;;;32.90;1.00;;;;;;5148678;27;20027;-48
2022/06/20 09:50:07;;;;;;;6.50;4.93;;;32.60;1.00;;;;;;5156247;27;20456;-46
2022/06/20 09:52:57;;;;;;;5.55;4.43;;;32.90;1.00;;;;;;5156446;27;20034;-49
2022/06/20 09:55:55;;;;;;;7.15;4.75;;;33.10;1.00;;;;;;5156644;27;20053;-47
2022/06/20 09:59:04;;;;;;;9.68;4.60;;;33.30;1.00;;;;;;5150881;27;20105;-47
2022/06/20 10:01:52;;;;;;;7.72;5.18;;;33.00;1.00;;;;;;5138950;27;20039;-48
2022/06/20 10:04:43;;;;;;;5.45;4.50;;;33.00;1.00;;;;;;5146951;27;20436;-47
2022/06/20 10:07:29;;;;;;;5.53;5.03;;;33.30;1.00;;;;;;5145565;27;20034;-48
2022/06/20 10:10:27;;;;;;;6.82;5.38;;;33.40;1.00;;;;;;5141680;27;20054;-47
2022/06/20 10:13:30;;;;;;;5.30;4.88;;;33.00;1.00;;;;;;5132027;27;20043;-47
2022/06/20 10:16:25;;;;;;;5.40;4.72;;;33.00;1.00;;;;;;5143068;27;20519;-48
2022/06/20 10:19:01;;;;;;;6.22;5.13;;;33.10;1.00;;;;;;5143161;27;20054;-46
2022/06/20 10:22:04;;;;;;;5.78;5.28;;;33.10;1.00;;;;;;5143556;27;20061;-48
2022/06/20 10:25:11;;;;;;;5.80;5.25;;;33.00;1.00;;;;;;5139510;27;20027;-48
2022/06/20 10:28:11;;;;;;;9.13;5.80;;;32.80;1.00;;;;;;5157543;27;20042;-50
2022/06/20 10:31:01;;;;;;;6.40;5.78;;;32.70;1.00;;;;;;5154022;27;20026;-48
2022/06/20 10:33:48;;;;;;;7.10;5.80;;;32.60;1.00;;;;;;5145441;27;20112;-48
2022/06/20 10:36:21;;;;;;;9.20;6.30;;;32.70;1.00;;;;;;5143355;27;20034;-52
2022/06/20 10:39:07;;;;;;;7.28;6.07;;;32.90;1.00;;;;;;5146270;27;20058;-46
2022/06/20 10:42:05;;;;;;;6.25;5.75;;;32.80;1.00;;;;;;5151593;27;20038;-48
2022/06/20 10:45:01;;;;;;;7.88;5.53;;;32.90;1.00;;;;;;5079927;27;20035;-47
2022/06/20 10:47:52;;;;;;;6.03;5.53;;;33.10;1.00;;;;;;5153042;27;20035;-47
2022/06/20 10:50:39;;;;;;;7.72;5.68;;;33.20;1.00;;;;;;5118848;27;20038;-47
2022/06/20 10:53:34;;;;;;;8.00;5.97;;;33.20;1.00;;;;;;5153130;27;20022;-49
2022/06/20 10:56:32;;;;;;;8.05;5.75;;;33.30;1.00;;;;;;5154761;27;20437;-47
2022/06/20 10:59:05;;;;;;;8.32;7.15;;;33.70;1.00;;;;;;5154478;27;20357;-48
2022/06/20 11:01:37;;;;;;;10.23;7.25;;;33.50;1.00;;;;;;5149525;27;20043;-47
2022/06/20 11:04:39;;;;;;;12.80;6.60;;;33.30;1.00;;;;;;5155972;27;20384;-49
2022/06/20 11:07:04;;;;;;;8.52;6.13;;;33.10;1.00;;;;;;5154615;27;20039;-46
2022/06/20 11:10:01;;;;;;;8.18;5.88;;;33.00;1.00;;;;;;5154527;27;20054;-47
2022/06/20 11:12:48;;;;;;;8.65;6.50;;;33.20;1.00;;;;;;5146879;27;20181;-47
2022/06/20 11:15:25;;;;;;;9.40;5.85;;;33.00;1.00;;;;;;5155431;27;20446;-46
2022/06/20 11:17:58;;;;;;;7.75;5.82;;;33.00;1.00;;;;;;5145978;27;20023;-46
2022/06/20 11:20:35;;;;;;;10.13;6.05;;;32.90;1.00;;;;;;5148635;27;20538;-48
2022/06/20 11:23:18;;;;;;;6.80;6.05;;;33.30;1.00;;;;;;5148015;27;20035;-51
2022/06/20 11:26:25;;;;;;;9.17;5.27;;;33.50;1.00;;;;;;5154316;27;20377;-49
2022/06/20 11:29:28;;;;;;;10.80;6.20;;;33.50;1.00;;;;;;5149531;27;20260;-47
2022/06/20 11:32:28;;;;;;;6.93;6.28;;;33.90;1.00;;;;;;5144890;27;20474;-49
2022/06/20 11:34:54;;;;;;;6.22;5.63;;;33.60;1.00;;;;;;5134202;27;20028;-46
2022/06/20 11:37:36;;;;;;;8.63;5.57;;;33.70;1.00;;;;;;5145007;27;20023;-47
2022/06/20 11:40:04;;;;;;;6.32;5.53;;;33.30;1.00;;;;;;5149174;27;20295;-47
2022/06/20 11:43:00;;;;;;;6.28;5.68;;;33.40;1.00;;;;;;5139372;27;20041;-52
2022/06/20 11:45:31;;;;;;;8.98;5.57;;;33.10;1.00;;;;;;5154945;27;20086;-51
2022/06/20 11:48:09;;;;;;;8.80;5.88;;;33.40;1.00;;;;;;5153643;27;20036;-45
2022/06/20 11:51:06;;;;;;;6.10;5.53;;;33.50;1.00;;;;;;5140789;27;20027;-47
2022/06/20 11:53:51;;;;;;;6.95;6.20;;;33.70;1.00;;;;;;5147591;27;20038;-49
2022/06/20 11:56:28;;;;;;;6.70;5.43;;;33.70;1.00;;;;;;5136576;27;20031;-48
2022/06/20 11:58:54;;;;;;;6.47;5.38;;;33.90;1.00;;;;;;5146547;27;20400;-48
2022/06/20 12:01:32;;;;;;;9.07;4.82;;;33.90;1.00;;;;;;5132270;27;20043;-47
2022/06/20 12:04:13;;;;;;;6.88;5.15;;;34.30;1.00;;;;;;5152545;27;20010;-48
2022/06/20 12:06:56;;;;;;;6.32;5.18;;;34.10;1.00;;;;;;5140991;27;20026;-50
2022/06/20 12:09:45;;;;;;;;;;;33.80;1.00;;;;;;5137994;27;20511;-46
2022/06/20 12:12:48;;;;;;;6.55;5.30;;;33.80;1.00;;;;;;5139932;27;19907;-47
2022/06/20 12:15:34;;;;;;;7.63;5.45;;;33.80;1.00;;;;;;5146347;27;20045;-47
2022/06/20 12:18:18;;;;;;;9.05;5.40;;;34.00;1.00;;;;;;5141944;27;20031;-47
2022/06/20 12:23:32;;;;;;;8.77;5.60;;;34.10;1.00;;;;;;5143958;27;20038;-47
2022/06/20 12:26:12;;;;;;;7.00;5.15;;;34.40;1.00;;;;;;5146887;27;20205;-53
2022/06/20 12:28:41;;;;;;;10.90;5.95;;;34.60;1.00;;;;;;5139671;27;20076;-52
2022/06/20 12:31:12;;;;;;;8.80;5.07;;;34.40;1.00;;;;;;5148269;27;20030;-55
2022/06/20 12:33:42;;;;;;;5.75;5.20;;;34.80;1.00;;;;;;5151563;27;20027;-52
2022/06/20 12:36:39;;;;;;;7.68;5.40;;;34.80;1.00;;;;;;5149760;27;20391;-49
2022/06/20 12:39:37;;;;;;;7.00;4.82;;;34.80;1.00;;;;;;5144296;27;20019;-50
2022/06/20 12:42:12;;;;;;;7.13;5.43;;;34.60;1.00;;;;;;5143383;27;20057;-50
2022/06/20 12:44:52;;;;;;;8.57;6.40;;;34.60;1.00;;;;;;5153331;27;20022;-52
2022/06/20 12:47:36;;;;;;;12.70;5.75;;;34.60;1.00;;;;;;5152060;27;20026;-48
2022/06/20 12:50:23;;;;;;;6.88;6.03;;;34.50;1.00;;;;;;5151615;27;20083;-46
2022/06/20 12:53:08;;;;;;;7.68;5.80;;;34.40;1.00;;;;;;5137628;27;20019;-50
2022/06/20 12:55:39;;;;;;;8.20;5.93;;;34.50;1.00;;;;;;5153607;27;20104;-48
2022/06/20 12:58:14;;;;;;;5.47;5.05;;;34.70;1.00;;;;;;5134076;27;20049;-48
2022/06/20 13:01:09;;;;;;;9.45;5.50;;;34.70;1.00;;;;;;5153426;27;20397;-49
2022/06/20 13:03:40;;;;;;;7.75;5.75;;;34.70;1.00;;;;;;5128889;27;20035;-49
2022/06/20 13:06:21;;;;;;;9.50;5.65;;;35.00;1.00;;;;;;5150434;27;20034;-47
2022/06/20 13:09:07;;;;;;;7.25;5.53;;;34.90;1.00;;;;;;5152686;27;20058;-48
2022/06/20 13:12:04;;;;;;;6.47;5.78;;;35.00;1.00;;;;;;5152184;27;20031;-50
2022/06/20 13:14:40;;;;;;;6.78;5.93;;;34.80;1.00;;;;;;5153524;27;20098;-48
2022/06/20 13:17:26;;;;;;;9.00;6.13;;;34.80;1.00;;;;;;5149089;27;20484;-49
2022/06/20 13:19:58;;;;;;;8.55;7.15;;;34.80;1.00;;;;;;5141214;27;20027;-47
2022/06/20 13:22:30;;;;;;;7.57;6.03;;;34.70;1.00;;;;;;5145834;27;20035;-52
2022/06/20 13:25:10;;;;;;;5.63;5.18;;;34.90;1.00;;;;;;5153233;27;20037;-46
2022/06/20 13:28:18;;;;;;;6.88;6.22;;;34.70;1.00;;;;;;5151311;27;20056;-49
2022/06/20 13:31:21;;;;;;;7.20;6.30;;;35.00;1.00;;;;;;5150853;27;20324;-48
2022/06/20 13:34:04;;;;;;;6.97;6.15;;;35.20;1.00;;;;;;5150003;27;20031;-47
2022/06/20 13:36:51;;;;;;;6.85;5.93;;;34.90;1.00;;;;;;5150288;27;20035;-47
2022/06/20 13:39:32;;;;;;;9.68;6.43;;;35.00;1.00;;;;;;5150548;27;20070;-46
2022/06/20 13:42:14;;;;;;;9.07;6.05;;;35.20;1.00;;;;;;5149529;27;20038;-47
2022/06/20 13:44:54;;;;;;;11.10;6.07;;;35.10;1.00;;;;;;5153424;27;20062;-51
2022/06/20 13:47:28;;;;;;;7.95;5.97;;;34.90;1.00;;;;;;5147155;27;20356;-52
2022/06/20 13:50:14;;;;;;;8.50;5.93;;;35.10;1.00;;;;;;5147661;27;20357;-47
2022/06/20 13:52:56;;;;;;;9.68;6.43;;;35.20;1.00;;;;;;5143102;27;20114;-47
2022/06/20 13:55:42;;;;;;;10.27;6.22;;;35.30;1.00;;;;;;5153082;27;20018;-50
2022/06/20 13:58:14;;;;;;;9.20;6.38;;;35.20;1.00;;;;;;5133372;27;20027;-47
2022/06/20 14:04:08;;;;;;;13.23;6.15;;;35.60;1.00;;;;;;5139369;27;20483;-52
2022/06/20 14:06:45;;;;;;;8.40;5.75;;;35.70;1.00;;;;;;5152038;27;20026;-49
2022/06/20 14:09:42;;;;;;;8.60;7.53;;;35.70;1.00;;;;;;5152968;27;20077;-47
2022/06/20 14:12:20;;;;;;;7.63;6.15;;;35.50;1.00;;;;;;5145513;27;20389;-48
2022/06/20 14:14:49;;;;;;;8.63;7.07;;;35.70;1.00;;;;;;5143156;27;20023;-46
2022/06/20 14:17:17;;;;;;;9.65;6.10;;;35.90;1.00;;;;;;5151766;27;20023;-46
2022/06/20 14:20:08;;;;;;;10.85;6.68;;;36.10;1.00;;;;;;5153283;27;20578;-47
2022/06/20 14:22:44;;;;;;;8.80;6.10;;;36.00;1.00;;;;;;5155248;27;20030;-47
2022/06/20 14:25:25;;;;;;;9.68;5.70;;;36.10;1.00;;;;;;5155032;27;20030;-45
2022/06/20 14:27:53;;;;;;;10.10;5.80;;;36.00;1.00;;;;;;5155230;27;20027;-46
2022/06/20 14:30:21;;;;;;;7.68;5.72;;;35.70;1.00;;;;;;5141907;27;20014;-47
2022/06/20 14:33:03;;;;;;;7.30;5.60;;;36.00;1.00;;;;;;5155293;27;20382;-46
2022/06/20 14:35:44;;;;;;;6.97;5.88;;;36.10;1.00;;;;;;5147277;27;20827;-48